全部
Self Forward Landing Strip Airport (Leesville, LA) 19LA 天氣
There is no TAF data available at 19LA or any nearby airports.
There is no METAR data available at 19LA. Showing METAR data for KDRI (23 mi SW).
DRI近期METAR歷史資料(19LA無資料)
| Date | Time (CDT) | Flight Rules | Wind Dir. | Speed | Type | Height AGL (ft) | Visibility | Temp (°C) | Temp (°F) | Dew Point (°C) | Dew Point (°F) | Rel. Humid. | Pressure | Density Altitude | Remarks |
|---|---|---|---|---|---|---|---|---|---|---|---|---|---|---|---|
| 05-五月 | 13:55 | VFR | 190° | 11 kt | 10 miles | 25° | 77° | 23° | 73° | 87% | 29.83 in Hg | 1,491 ft | |||
| 05-五月 | 13:35 | VFR | 200° | 9 kt | 10 miles | 25° | 77° | 23° | 73° | 87% | 29.83 in Hg | 1,491 ft | |||
| 05-五月 | 13:15 | VFR | 200° | 11 kt | 10 miles | 24° | 75° | 23° | 73° | 92% | 29.84 in Hg | 1,361 ft | |||
| 05-五月 | 12:55 | VFR | 200° | 10 kt | 10 miles | 25° | 77° | 22° | 71° | 83% | 29.84 in Hg | 1,481 ft | |||
| 05-五月 | 12:35 | VFR | 190° | 10 kt | 10 miles | 25° | 77° | 22° | 71° | 81% | 29.84 in Hg | 1,481 ft | |||
| 05-五月 | 12:15 | VFR | 190° | 12 kt | 10 miles | 26° | 78° | 22° | 71° | 80% | 29.84 in Hg | 1,601 ft | |||
| 05-五月 | 11:55 | VFR | 190° | 9 kt | 10 miles | 25° | 77° | 22° | 71° | 81% | 29.84 in Hg | 1,481 ft | |||
| 05-五月 | 11:35 | VFR | 200° | 10 kt | 10 miles | 25° | 77° | 22° | 71° | 82% | 29.84 in Hg | 1,481 ft | |||
| 05-五月 | 11:15 | VFR | 200° | 11 kt | 10 miles | 25° | 77° | 22° | 71° | 82% | 29.85 in Hg | 1,471 ft | |||
| 05-五月 | 10:55 | VFR | 180° | 11 kt | 10 miles | 25° | 77° | 22° | 71° | 80% | 29.84 in Hg | 1,481 ft | |||
| 05-五月 | 10:35 | VFR | 200° | 12 kt | 10 miles | 25° | 77° | 22° | 71° | 81% | 29.84 in Hg | 1,481 ft | |||
| 05-五月 | 10:15 | VFR | 180° | 10 kt | 10 miles | 24° | 75° | 21° | 69° | 84% | 29.84 in Hg | 1,361 ft | |||
| 05-五月 | 09:55 | VFR | 190° | 10 kt | 10 miles | 24° | 75° | 22° | 71° | 88% | 29.85 in Hg | 1,351 ft | |||
| 05-五月 | 09:35 | VFR | 190° | 8 kt | 10 miles | 23° | 73° | 21° | 69° | 89% | 29.85 in Hg | 1,231 ft | |||
| 05-五月 | 09:15 | VFR | 190° | 7 kt | 10 miles | 23° | 73° | 21° | 69° | 92% | 29.85 in Hg | 1,231 ft | |||
| 05-五月 | 08:55 | VFR | 180° | 9 kt | 10 miles | 22° | 71° | 21° | 69° | 92% | 29.84 in Hg | 1,121 ft | |||
| 05-五月 | 08:35 | VFR | 170° | 7 kt | 10 miles | 22° | 71° | 21° | 69° | 92% | 29.84 in Hg | 1,121 ft | |||
| 05-五月 | 08:15 | VFR | 160° | 7 kt | 10 miles | 21° | 69° | 20° | 68° | 94% | 29.83 in Hg | 1,011 ft | |||
| 05-五月 | 07:55 | VFR | 170° | 6 kt | 10 miles | 21° | 69° | 20° | 68° | 95% | 29.84 in Hg | 1,001 ft | |||
| 05-五月 | 07:35 | VFR | 160° | 7 kt | 10 miles | 21° | 69° | 20° | 68° | 96% | 29.84 in Hg | 1,001 ft | |||
| 05-五月 | 07:15 | VFR | 150° | 6 kt | 10 miles | 20° | 68° | 20° | 68° | 97% | 29.83 in Hg | 891 ft | |||
| 05-五月 | 06:55 | VFR | 150° | 6 kt | 10 miles | 20° | 68° | 19° | 66° | 97% | 29.82 in Hg | 901 ft | |||
| 05-五月 | 06:35 | VFR | 150° | 5 kt | 10 miles | 20° | 68° | 19° | 66° | 97% | 29.82 in Hg | 901 ft | |||
| 05-五月 | 06:15 | VFR | 150° | 6 kt | 10 miles | 19° | 66° | 19° | 66° | 97% | 29.82 in Hg | 781 ft |
登入
| 您的瀏覽器不支援. 升級您的瀏覽器 |
